TimeMST,TemperatureF,Dew PointF,Humidity,Sea Level PressureIn,VisibilityMPH,Wind Direction,Wind SpeedMPH,Gust SpeedMPH,PrecipitationIn,Events,Conditions,WindDirDegrees,DateUTC
12:55 AM,8.1,-11.0,42,30.80,9.0,Calm,Calm,-,N/A,,Clear,0,2013-01-17 07:55:00
1:55 AM,10.9,-11.0,37,30.78,9.0,Calm,Calm,-,N/A,,Clear,0,2013-01-17 08:55:00
2:55 AM,12.0,-13.0,32,30.76,7.0,Calm,Calm,-,N/A,,Clear,0,2013-01-17 09:55:00
3:55 AM,10.0,-11.9,37,30.78,7.0,Calm,Calm,-,N/A,,Clear,0,2013-01-17 10:55:00
4:55 AM,-5.1,-14.1,65,30.83,8.0,Calm,Calm,-,N/A,,Clear,0,2013-01-17 11:55:00
5:55 AM,9.0,-13.0,36,30.79,10.0,Calm,Calm,-,N/A,,Clear,0,2013-01-17 12:55:00
6:55 AM,-5.1,-14.1,65,30.84,9.0,Calm,Calm,-,N/A,,Clear,0,2013-01-17 13:55:00
7:55 AM,1.0,-13.0,52,30.84,8.0,Calm,Calm,-,N/A,,Clear,0,2013-01-17 14:55:00
8:08 AM,3.2,-14.8,43,30.59,0.8,Calm,Calm,-,N/A,,Haze,0,2013-01-17 15:08:00
8:15 AM,-4.0,-14.8,60,30.59,0.5,Calm,Calm,-,N/A,,Haze,0,2013-01-17 15:15:00
8:20 AM,-4.0,-13.0,65,30.60,1.5,Calm,Calm,-,N/A,,Haze,0,2013-01-17 15:20:00
8:22 AM,-4.0,-13.0,65,30.60,4.0,Calm,Calm,-,N/A,,Haze,0,2013-01-17 15:22:00
8:55 AM,-0.0,-11.0,60,30.92,8.0,Calm,Calm,-,N/A,,Clear,0,2013-01-17 15:55:00
9:55 AM,10.0,-5.1,51,30.85,9.0,Calm,Calm,-,N/A,,Clear,0,2013-01-17 16:55:00
10:55 AM,10.0,-5.1,51,30.86,9.0,Calm,Calm,-,N/A,,Clear,0,2013-01-17 17:55:00
12:55 PM,19.0,-0.0,43,30.73,10.0,Calm,Calm,-,N/A,,Clear,0,2013-01-17 19:55:00
1:55 PM,21.0,1.9,44,30.69,10.0,Calm,Calm,-,N/A,,Clear,0,2013-01-17 20:55:00
2:55 PM,21.9,1.9,42,30.66,10.0,Calm,Calm,-,N/A,,Clear,0,2013-01-17 21:55:00
3:55 PM,21.0,3.0,46,30.65,10.0,Calm,Calm,-,N/A,,Clear,0,2013-01-17 22:55:00
4:55 PM,28.0,-2.0,27,30.69,10.0,Calm,Calm,-,N/A,,Clear,0,2013-01-17 23:55:00
5:55 PM,19.9,-4.0,35,30.66,10.0,Calm,Calm,-,N/A,,Clear,0,2013-01-18 00:55:00
6:55 PM,19.0,-5.1,34,30.72,10.0,Calm,Calm,-,N/A,,Clear,0,2013-01-18 01:55:00
7:55 PM,15.1,-7.1,37,30.71,10.0,Calm,Calm,-,N/A,,Clear,0,2013-01-18 02:55:00
8:55 PM,17.1,-5.1,37,30.70,10.0,Calm,Calm,-,N/A,,Clear,0,2013-01-18 03:55:00
9:55 PM,9.0,-6.0,51,30.69,10.0,Calm,Calm,-,N/A,,Clear,0,2013-01-18 04:55:00
10:55 PM,10.0,-8.0,44,30.69,9.0,Calm,Calm,-,N/A,,Clear,0,2013-01-18 05:55:00
11:55 PM,3.0,-7.1,63,30.68,10.0,Calm,Calm,-,N/A,,Clear,0,2013-01-18 06:55:00